sensor_id;sensor_type;location;lat;lon;timestamp;pressure;altitude;pressure_sealevel;temperature;humidity
28000;BME280;15328;50.860;10.562;2023-04-02T00:04:30;95641.22;;;8.55;72.51
28000;BME280;15328;50.860;10.562;2023-04-02T00:09:37;95646.66;;;8.24;72.05
28000;BME280;15328;50.860;10.562;2023-04-02T00:14:38;95656.06;;;8.20;72.20
28000;BME280;15328;50.860;10.562;2023-04-02T00:19:49;95669.09;;;8.21;71.85
28000;BME280;15328;50.860;10.562;2023-04-02T00:24:52;95689.69;;;8.01;71.39
28000;BME280;15328;50.860;10.562;2023-04-02T00:29:55;95693.41;;;7.75;72.43
28000;BME280;15328;50.860;10.562;2023-04-02T00:34:56;95697.53;;;7.71;72.31
28000;BME280;15328;50.860;10.562;2023-04-02T00:40:00;95700.50;;;7.56;72.69
28000;BME280;15328;50.860;10.562;2023-04-02T00:45:14;95716.81;;;7.53;72.27
28000;BME280;15328;50.860;10.562;2023-04-02T00:50:23;95719.88;;;7.50;71.88
28000;BME280;15328;50.860;10.562;2023-04-02T00:55:33;95728.72;;;7.37;72.72
28000;BME280;15328;50.860;10.562;2023-04-02T01:00:35;95729.63;;;7.25;72.54
28000;BME280;15328;50.860;10.562;2023-04-02T01:05:35;95748.59;;;7.22;73.25
28000;BME280;15328;50.860;10.562;2023-04-02T01:11:01;95749.97;;;7.24;73.05
28000;BME280;15328;50.860;10.562;2023-04-02T01:16:11;95759.59;;;7.12;73.04
28000;BME280;15328;50.860;10.562;2023-04-02T01:31:16;95787.19;;;6.91;72.22
28000;BME280;15328;50.860;10.562;2023-04-02T01:36:39;95806.34;;;6.80;72.23
28000;BME280;15328;50.860;10.562;2023-04-02T01:47:09;95823.88;;;6.68;72.37
28000;BME280;15328;50.860;10.562;2023-04-02T01:52:17;95836.09;;;6.56;72.37
28000;BME280;15328;50.860;10.562;2023-04-02T01:57:18;95848.28;;;6.57;72.09
28000;BME280;15328;50.860;10.562;2023-04-02T02:02:19;95854.00;;;6.47;71.81
28000;BME280;15328;50.860;10.562;2023-04-02T02:07:20;95858.09;;;6.43;71.72
28000;BME280;15328;50.860;10.562;2023-04-02T02:12:22;95861.53;;;6.24;71.92
28000;BME280;15328;50.860;10.562;2023-04-02T02:17:28;95873.75;;;6.31;71.82
28000;BME280;15328;50.860;10.562;2023-04-02T02:22:32;95875.97;;;6.28;71.39
28000;BME280;15328;50.860;10.562;2023-04-02T02:28:12;95894.88;;;6.18;71.69
28000;BME280;15328;50.860;10.562;2023-04-02T02:33:24;95895.91;;;6.10;72.17
28000;BME280;15328;50.860;10.562;2023-04-02T02:48:56;95924.28;;;5.88;73.13
28000;BME280;15328;50.860;10.562;2023-04-02T02:54:01;95934.69;;;6.03;71.78
28000;BME280;15328;50.860;10.562;2023-04-02T02:59:04;95942.53;;;5.77;71.85
28000;BME280;15328;50.860;10.562;2023-04-02T03:04:07;95950.81;;;5.67;72.05
28000;BME280;15328;50.860;10.562;2023-04-02T03:14:58;95968.84;;;5.57;72.20
28000;BME280;15328;50.860;10.562;2023-04-02T03:20:05;95981.41;;;5.48;71.84
28000;BME280;15328;50.860;10.562;2023-04-02T03:25:21;95997.81;;;5.44;71.21
28000;BME280;15328;50.860;10.562;2023-04-02T03:30:28;95997.97;;;5.36;71.36
28000;BME280;15328;50.860;10.562;2023-04-02T03:46:23;96037.19;;;5.11;72.22
28000;BME280;15328;50.860;10.562;2023-04-02T03:57:04;96050.28;;;4.97;72.11
28000;BME280;15328;50.860;10.562;2023-04-02T04:07:37;96061.97;;;4.88;72.21
28000;BME280;15328;50.860;10.562;2023-04-02T04:12:42;96076.53;;;4.84;72.64
28000;BME280;15328;50.860;10.562;2023-04-02T04:17:48;96085.78;;;4.74;72.06
28000;BME280;15328;50.860;10.562;2023-04-02T04:22:51;96088.59;;;4.72;71.81
28000;BME280;15328;50.860;10.562;2023-04-02T04:28:21;96111.25;;;4.67;72.10
28000;BME280;15328;50.860;10.562;2023-04-02T04:33:27;96112.56;;;4.56;72.00
28000;BME280;15328;50.860;10.562;2023-04-02T04:38:39;96127.81;;;4.39;72.33
28000;BME280;15328;50.860;10.562;2023-04-02T04:43:58;96130.50;;;4.46;72.26
28000;BME280;15328;50.860;10.562;2023-04-02T04:49:17;96150.69;;;4.39;72.00
28000;BME280;15328;50.860;10.562;2023-04-02T04:54:19;96154.59;;;4.28;72.30
28000;BME280;15328;50.860;10.562;2023-04-02T04:59:24;96158.69;;;4.30;72.17
28000;BME280;15328;50.860;10.562;2023-04-02T05:04:34;96166.53;;;4.24;72.21
28000;BME280;15328;50.860;10.562;2023-04-02T05:09:41;96189.69;;;4.14;72.26
28000;BME280;15328;50.860;10.562;2023-04-02T05:15:05;96195.22;;;4.04;70.94
28000;BME280;15328;50.860;10.562;2023-04-02T05:20:53;96199.97;;;3.94;71.76
28000;BME280;15328;50.860;10.562;2023-04-02T05:26:08;96218.75;;;3.91;71.80
28000;BME280;15328;50.860;10.562;2023-04-02T05:31:28;96223.56;;;3.87;72.09
28000;BME280;15328;50.860;10.562;2023-04-02T05:36:30;96237.13;;;3.76;72.76
28000;BME280;15328;50.860;10.562;2023-04-02T05:41:35;96238.78;;;3.77;72.95
28000;BME280;15328;50.860;10.562;2023-04-02T05:46:45;96242.22;;;3.78;73.43
28000;BME280;15328;50.860;10.562;2023-04-02T05:51:49;96239.03;;;3.82;72.79
28000;BME280;15328;50.860;10.562;2023-04-02T05:56:58;96259.66;;;3.79;72.74
28000;BME280;15328;50.860;10.562;2023-04-02T06:07:22;96280.06;;;3.77;73.22
28000;BME280;15328;50.860;10.562;2023-04-02T06:18:07;96305.72;;;3.75;73.07
28000;BME280;15328;50.860;10.562;2023-04-02T06:23:37;96312.50;;;3.92;72.51
28000;BME280;15328;50.860;10.562;2023-04-02T06:28:46;96322.41;;;3.67;72.51
28000;BME280;15328;50.860;10.562;2023-04-02T06:33:47;96333.56;;;3.69;72.41
28000;BME280;15328;50.860;10.562;2023-04-02T06:38:54;96346.72;;;3.69;72.42
28000;BME280;15328;50.860;10.562;2023-04-02T06:44:00;96361.81;;;3.52;73.08
28000;BME280;15328;50.860;10.562;2023-04-02T06:54:14;96386.09;;;3.62;72.85
28000;BME280;15328;50.860;10.562;2023-04-02T06:59:16;96393.16;;;3.62;72.41
28000;BME280;15328;50.860;10.562;2023-04-02T07:04:17;96400.25;;;3.61;72.05
28000;BME280;15328;50.860;10.562;2023-04-02T07:09:18;96411.66;;;3.46;71.88
28000;BME280;15328;50.860;10.562;2023-04-02T07:14:18;96416.63;;;3.40;71.91
28000;BME280;15328;50.860;10.562;2023-04-02T07:19:21;96440.03;;;3.27;72.00
28000;BME280;15328;50.860;10.562;2023-04-02T07:24:21;96446.94;;;3.28;72.64
28000;BME280;15328;50.860;10.562;2023-04-02T07:29:22;96452.19;;;3.28;72.85
28000;BME280;15328;50.860;10.562;2023-04-02T07:34:22;96467.00;;;3.29;72.55
28000;BME280;15328;50.860;10.562;2023-04-02T07:39:22;96469.13;;;3.26;73.05
28000;BME280;15328;50.860;10.562;2023-04-02T07:44:23;96481.44;;;3.33;72.77
28000;BME280;15328;50.860;10.562;2023-04-02T07:49:23;96492.78;;;3.26;72.85
28000;BME280;15328;50.860;10.562;2023-04-02T07:54:23;96485.00;;;3.40;72.76
28000;BME280;15328;50.860;10.562;2023-04-02T07:59:26;96496.53;;;3.39;72.89
28000;BME280;15328;50.860;10.562;2023-04-02T08:04:26;96509.84;;;3.38;72.64
28000;BME280;15328;50.860;10.562;2023-04-02T08:09:27;96530.19;;;3.44;72.77
28000;BME280;15328;50.860;10.562;2023-04-02T08:14:27;96531.84;;;3.45;72.38
28000;BME280;15328;50.860;10.562;2023-04-02T08:19:27;96544.50;;;3.41;72.70
28000;BME280;15328;50.860;10.562;2023-04-02T08:24:27;96550.91;;;3.47;73.17
28000;BME280;15328;50.860;10.562;2023-04-02T08:29:28;96561.06;;;3.50;72.50
28000;BME280;15328;50.860;10.562;2023-04-02T08:34:31;96567.69;;;3.38;73.21
28000;BME280;15328;50.860;10.562;2023-04-02T08:39:31;96584.13;;;3.40;73.45
28000;BME280;15328;50.860;10.562;2023-04-02T08:44:43;96590.41;;;3.31;73.43
28000;BME280;15328;50.860;10.562;2023-04-02T08:50:00;96599.69;;;3.58;71.82
28000;BME280;15328;50.860;10.562;2023-04-02T08:55:03;96608.72;;;3.55;72.04
28000;BME280;15328;50.860;10.562;2023-04-02T09:05:29;96631.09;;;3.51;72.41
28000;BME280;15328;50.860;10.562;2023-04-02T09:10:39;96638.03;;;3.44;72.47
28000;BME280;15328;50.860;10.562;2023-04-02T09:15:42;96640.81;;;3.42;71.75
28000;BME280;15328;50.860;10.562;2023-04-02T09:20:43;96657.09;;;3.46;71.65
28000;BME280;15328;50.860;10.562;2023-04-02T09:25:47;96668.09;;;3.58;71.32
28000;BME280;15328;50.860;10.562;2023-04-02T09:31:20;96677.16;;;3.39;71.71
28000;BME280;15328;50.860;10.562;2023-04-02T09:36:38;96681.09;;;3.43;71.12
28000;BME280;15328;50.860;10.562;2023-04-02T09:41:39;96699.03;;;3.31;71.63
28000;BME280;15328;50.860;10.562;2023-04-02T09:47:00;96706.41;;;3.28;71.29
28000;BME280;15328;50.860;10.562;2023-04-02T09:57:22;96720.41;;;3.20;72.09
28000;BME280;15328;50.860;10.562;2023-04-02T10:02:27;96738.31;;;3.17;72.24
28000;BME280;15328;50.860;10.562;2023-04-02T10:07:49;96738.63;;;3.22;72.11
28000;BME280;15328;50.860;10.562;2023-04-02T10:13:24;96736.34;;;3.10;72.22
28000;BME280;15328;50.860;10.562;2023-04-02T10:23:47;96763.94;;;3.23;72.60
28000;BME280;15328;50.860;10.562;2023-04-02T10:34:05;96764.94;;;3.14;71.79
28000;BME280;15328;50.860;10.562;2023-04-02T10:39:14;96768.34;;;2.98;71.29
28000;BME280;15328;50.860;10.562;2023-04-02T10:55:01;96801.38;;;3.00;70.69
28000;BME280;15328;50.860;10.562;2023-04-02T11:05:39;96818.59;;;2.87;69.97
28000;BME280;15328;50.860;10.562;2023-04-02T11:10:39;96816.53;;;3.06;70.28
28000;BME280;15328;50.860;10.562;2023-04-02T11:15:43;96829.63;;;2.98;70.32
28000;BME280;15328;50.860;10.562;2023-04-02T11:25:47;96845.41;;;2.98;70.50
28000;BME280;15328;50.860;10.562;2023-04-02T11:30:47;96856.78;;;3.07;70.11
28000;BME280;15328;50.860;10.562;2023-04-02T11:35:48;96854.81;;;3.17;69.11
28000;BME280;15328;50.860;10.562;2023-04-02T11:40:50;96866.47;;;3.15;69.55
28000;BME280;15328;50.860;10.562;2023-04-02T11:45:53;96873.16;;;3.01;69.89
28000;BME280;15328;50.860;10.562;2023-04-02T11:50:55;96870.69;;;2.99;70.04
28000;BME280;15328;50.860;10.562;2023-04-02T12:11:49;96902.81;;;3.19;70.00
28000;BME280;15328;50.860;10.562;2023-04-02T12:16:50;96902.94;;;3.09;69.40
28000;BME280;15328;50.860;10.562;2023-04-02T12:21:51;96904.66;;;3.35;69.87
28000;BME280;15328;50.860;10.562;2023-04-02T12:27:10;96924.94;;;3.59;68.83
28000;BME280;15328;50.860;10.562;2023-04-02T12:32:34;96923.78;;;3.61;67.23
28000;BME280;15328;50.860;10.562;2023-04-02T12:37:35;96925.88;;;3.50;67.15
28000;BME280;15328;50.860;10.562;2023-04-02T12:42:36;96923.63;;;3.63;66.52
28000;BME280;15328;50.860;10.562;2023-04-02T12:47:36;96931.50;;;3.63;66.50
28000;BME280;15328;50.860;10.562;2023-04-02T12:52:43;96935.41;;;3.51;66.56
28000;BME280;15328;50.860;10.562;2023-04-02T12:57:47;96939.25;;;3.64;66.95
28000;BME280;15328;50.860;10.562;2023-04-02T13:03:15;96946.47;;;3.70;66.40
28000;BME280;15328;50.860;10.562;2023-04-02T13:08:27;96949.78;;;3.89;66.51
28000;BME280;15328;50.860;10.562;2023-04-02T13:13:36;96953.59;;;3.86;66.30
28000;BME280;15328;50.860;10.562;2023-04-02T13:18:37;96958.03;;;3.86;66.04
28000;BME280;15328;50.860;10.562;2023-04-02T13:23:38;96955.06;;;3.97;65.76
28000;BME280;15328;50.860;10.562;2023-04-02T13:28:38;96965.25;;;4.00;65.81
28000;BME280;15328;50.860;10.562;2023-04-02T13:33:38;96960.31;;;3.97;65.44
28000;BME280;15328;50.860;10.562;2023-04-02T13:38:39;96969.69;;;3.99;66.06
28000;BME280;15328;50.860;10.562;2023-04-02T13:43:40;96973.69;;;4.12;66.44
28000;BME280;15328;50.860;10.562;2023-04-02T13:48:40;96979.25;;;4.09;66.40
28000;BME280;15328;50.860;10.562;2023-04-02T13:53:40;96988.66;;;4.11;65.00
28000;BME280;15328;50.860;10.562;2023-04-02T13:58:41;96996.34;;;3.96;65.72
28000;BME280;15328;50.860;10.562;2023-04-02T14:03:42;96996.34;;;4.04;64.76
28000;BME280;15328;50.860;10.562;2023-04-02T14:08:46;97002.94;;;4.09;65.15
28000;BME280;15328;50.860;10.562;2023-04-02T14:24:57;97029.78;;;4.20;65.87
28000;BME280;15328;50.860;10.562;2023-04-02T14:30:22;97026.19;;;4.13;65.54
28000;BME280;15328;50.860;10.562;2023-04-02T14:36:05;97038.97;;;4.08;65.36
28000;BME280;15328;50.860;10.562;2023-04-02T14:46:46;97033.53;;;4.10;66.01
28000;BME280;15328;50.860;10.562;2023-04-02T14:51:50;97050.19;;;4.18;66.77
28000;BME280;15328;50.860;10.562;2023-04-02T14:56:56;97051.84;;;4.35;66.08
28000;BME280;15328;50.860;10.562;2023-04-02T15:02:44;97051.53;;;4.39;65.59
28000;BME280;15328;50.860;10.562;2023-04-02T15:07:58;97053.19;;;4.40;65.45
28000;BME280;15328;50.860;10.562;2023-04-02T15:13:03;97059.59;;;4.45;65.41
28000;BME280;15328;50.860;10.562;2023-04-02T15:18:11;97061.22;;;4.30;65.56
28000;BME280;15328;50.860;10.562;2023-04-02T15:28:31;97068.19;;;4.39;65.60
28000;BME280;15328;50.860;10.562;2023-04-02T15:33:41;97069.31;;;4.45;65.77
28000;BME280;15328;50.860;10.562;2023-04-02T15:38:44;97080.69;;;4.45;65.72
28000;BME280;15328;50.860;10.562;2023-04-02T15:44:07;97084.31;;;4.52;65.40
28000;BME280;15328;50.860;10.562;2023-04-02T15:54:48;97095.66;;;4.53;65.82
28000;BME280;15328;50.860;10.562;2023-04-02T16:10:21;97119.72;;;4.42;65.15
28000;BME280;15328;50.860;10.562;2023-04-02T16:15:27;97122.69;;;4.47;65.80
28000;BME280;15328;50.860;10.562;2023-04-02T16:20:33;97131.72;;;4.52;65.59
28000;BME280;15328;50.860;10.562;2023-04-02T16:25:44;97135.19;;;4.53;65.91
28000;BME280;15328;50.860;10.562;2023-04-02T16:52:33;97152.16;;;4.50;64.23
28000;BME280;15328;50.860;10.562;2023-04-02T17:08:26;97164.66;;;4.48;63.06
28000;BME280;15328;50.860;10.562;2023-04-02T17:18:32;97168.97;;;4.57;62.68
28000;BME280;15328;50.860;10.562;2023-04-02T17:23:43;97176.19;;;4.39;62.83
28000;BME280;15328;50.860;10.562;2023-04-02T17:28:46;97177.94;;;4.30;62.72
28000;BME280;15328;50.860;10.562;2023-04-02T17:33:47;97180.31;;;4.42;62.55
28000;BME280;15328;50.860;10.562;2023-04-02T17:39:02;97187.53;;;4.40;62.52
28000;BME280;15328;50.860;10.562;2023-04-02T18:11:30;97225.69;;;4.27;65.13
28000;BME280;15328;50.860;10.562;2023-04-02T18:16:43;97233.09;;;4.24;65.33
28000;BME280;15328;50.860;10.562;2023-04-02T18:32:24;97250.06;;;4.29;66.58
28000;BME280;15328;50.860;10.562;2023-04-02T18:43:36;97267.00;;;4.27;66.84
28000;BME280;15328;50.860;10.562;2023-04-02T18:48:56;97271.28;;;4.28;67.63
28000;BME280;15328;50.860;10.562;2023-04-02T18:59:32;97288.91;;;4.27;67.00
28000;BME280;15328;50.860;10.562;2023-04-02T19:04:35;97288.91;;;4.27;67.50
28000;BME280;15328;50.860;10.562;2023-04-02T19:09:42;97290.56;;;4.28;67.39
28000;BME280;15328;50.860;10.562;2023-04-02T19:14:43;97293.66;;;4.24;67.41
28000;BME280;15328;50.860;10.562;2023-04-02T19:46:31;97340.56;;;4.20;67.51
28000;BME280;15328;50.860;10.562;2023-04-02T19:51:31;97345.38;;;4.25;67.18
28000;BME280;15328;50.860;10.562;2023-04-02T19:56:32;97340.44;;;4.30;67.04
28000;BME280;15328;50.860;10.562;2023-04-02T20:01:33;97340.91;;;4.25;66.77
28000;BME280;15328;50.860;10.562;2023-04-02T20:06:34;97337.06;;;4.12;65.33
28000;BME280;15328;50.860;10.562;2023-04-02T20:11:36;97347.72;;;4.10;65.54
28000;BME280;15328;50.860;10.562;2023-04-02T20:16:36;97351.09;;;4.20;64.78
28000;BME280;15328;50.860;10.562;2023-04-02T20:21:37;97361.63;;;4.20;64.33
28000;BME280;15328;50.860;10.562;2023-04-02T20:26:38;97365.25;;;4.19;62.88
28000;BME280;15328;50.860;10.562;2023-04-02T20:31:38;97371.50;;;4.18;63.18
28000;BME280;15328;50.860;10.562;2023-04-02T20:36:39;97383.69;;;4.19;62.90
28000;BME280;15328;50.860;10.562;2023-04-02T20:41:39;97381.06;;;4.19;62.26
28000;BME280;15328;50.860;10.562;2023-04-02T20:46:40;97391.13;;;4.24;62.48
28000;BME280;15328;50.860;10.562;2023-04-02T20:51:40;97395.75;;;4.30;63.24
28000;BME280;15328;50.860;10.562;2023-04-02T20:56:41;97395.75;;;4.30;63.22
28000;BME280;15328;50.860;10.562;2023-04-02T21:01:42;97400.53;;;4.26;62.74
28000;BME280;15328;50.860;10.562;2023-04-02T21:06:42;97393.28;;;4.28;63.06
28000;BME280;15328;50.860;10.562;2023-04-02T21:11:43;97399.88;;;4.32;63.08
28000;BME280;15328;50.860;10.562;2023-04-02T21:16:43;97408.31;;;4.36;62.93
28000;BME280;15328;50.860;10.562;2023-04-02T21:21:44;97422.31;;;4.37;63.59
28000;BME280;15328;50.860;10.562;2023-04-02T21:26:44;97421.06;;;4.23;62.65
28000;BME280;15328;50.860;10.562;2023-04-02T21:31:45;97430.78;;;4.22;63.03
28000;BME280;15328;50.860;10.562;2023-04-02T21:36:47;97449.22;;;4.22;62.34
28000;BME280;15328;50.860;10.562;2023-04-02T21:41:49;97451.56;;;4.08;61.84
28000;BME280;15328;50.860;10.562;2023-04-02T21:46:50;97450.75;;;4.07;61.60
28000;BME280;15328;50.860;10.562;2023-04-02T21:51:51;97458.44;;;4.00;61.55
28000;BME280;15328;50.860;10.562;2023-04-02T21:56:52;97450.00;;;3.97;60.73
28000;BME280;15328;50.860;10.562;2023-04-02T22:01:52;97461.81;;;3.93;60.86
28000;BME280;15328;50.860;10.562;2023-04-02T22:06:53;97461.75;;;3.85;61.86
28000;BME280;15328;50.860;10.562;2023-04-02T22:11:56;97467.84;;;3.85;61.31
28000;BME280;15328;50.860;10.562;2023-04-02T22:17:00;97470.69;;;3.74;60.41
28000;BME280;15328;50.860;10.562;2023-04-02T22:22:02;97478.22;;;3.69;60.75
28000;BME280;15328;50.860;10.562;2023-04-02T22:27:02;97471.28;;;3.68;60.52
28000;BME280;15328;50.860;10.562;2023-04-02T22:32:03;97477.22;;;3.52;61.00
28000;BME280;15328;50.860;10.562;2023-04-02T22:37:03;97485.69;;;3.46;60.37
28000;BME280;15328;50.860;10.562;2023-04-02T22:42:03;97479.53;;;3.37;61.15
28000;BME280;15328;50.860;10.562;2023-04-02T22:47:04;97487.56;;;3.36;60.75
28000;BME280;15328;50.860;10.562;2023-04-02T22:52:05;97496.44;;;3.35;61.25
28000;BME280;15328;50.860;10.562;2023-04-02T22:57:05;97493.97;;;3.24;60.80
28000;BME280;15328;50.860;10.562;2023-04-02T23:02:06;97498.38;;;3.05;60.22
28000;BME280;15328;50.860;10.562;2023-04-02T23:07:06;97502.97;;;3.03;60.58
28000;BME280;15328;50.860;10.562;2023-04-02T23:12:07;97513.84;;;3.08;60.70
28000;BME280;15328;50.860;10.562;2023-04-02T23:17:07;97509.88;;;2.95;61.11
28000;BME280;15328;50.860;10.562;2023-04-02T23:22:07;97519.00;;;3.00;61.26
28000;BME280;15328;50.860;10.562;2023-04-02T23:27:08;97520.84;;;2.90;60.60
28000;BME280;15328;50.860;10.562;2023-04-02T23:32:09;97522.63;;;2.90;60.85
28000;BME280;15328;50.860;10.562;2023-04-02T23:37:09;97525.00;;;2.83;60.43
28000;BME280;15328;50.860;10.562;2023-04-02T23:42:10;97518.41;;;2.79;60.47
28000;BME280;15328;50.860;10.562;2023-04-02T23:47:11;97516.59;;;2.70;61.08
28000;BME280;15328;50.860;10.562;2023-04-02T23:52:11;97515.22;;;2.66;60.53
28000;BME280;15328;50.860;10.562;2023-04-02T23:57:11;97518.41;;;2.69;61.03
